createdAt,value
2022-12-29T00:00:29.935Z,4.93
2022-12-29T00:04:15.185Z,4.99
2022-12-29T00:07:58.410Z,5.13
2022-12-29T00:11:41.414Z,5.07
2022-12-29T00:15:38.145Z,5.07
2022-12-29T00:19:40.264Z,5.06
2022-12-29T00:23:40.643Z,5.05
2022-12-29T00:27:40.989Z,5.04
2022-12-29T00:31:41.352Z,5.04
2022-12-29T00:35:29.026Z,5.11
2022-12-29T00:39:30.903Z,5.07
2022-12-29T00:43:45.492Z,5.09
2022-12-29T00:47:28.214Z,5.07
2022-12-29T00:51:12.269Z,5.01
2022-12-29T00:54:55.204Z,5.05
2022-12-29T00:58:37.890Z,5.01
2022-12-29T01:02:20.662Z,5.02
2022-12-29T01:06:03.720Z,5.02
2022-12-29T01:10:05.432Z,4.98
2022-12-29T01:13:48.135Z,4.97
2022-12-29T01:17:30.787Z,5.01
2022-12-29T01:21:14.047Z,5.05
2022-12-29T01:24:58.179Z,5.20
2022-12-29T01:28:42.410Z,5.15
2022-12-29T01:32:25.351Z,5.15
2022-12-29T01:36:09.914Z,5.11
2022-12-29T01:39:52.574Z,5.04
2022-12-29T01:43:43.389Z,5.03
2022-12-29T01:47:33.250Z,5.08
2022-12-29T01:51:16.613Z,5.16
2022-12-29T01:55:01.966Z,5.13
2022-12-29T01:58:48.360Z,5.18
2022-12-29T02:02:33.451Z,5.25
2022-12-29T02:06:20.473Z,5.34
2022-12-29T02:10:04.330Z,5.49
2022-12-29T02:13:48.358Z,5.39
2022-12-29T02:17:41.856Z,5.37
2022-12-29T02:21:49.889Z,5.33
2022-12-29T02:26:07.205Z,5.38
2022-12-29T02:30:07.071Z,5.46
2022-12-29T02:33:56.951Z,5.46
2022-12-29T02:37:44.247Z,5.54
2022-12-29T02:41:33.420Z,5.68
2022-12-29T02:45:21.839Z,5.71
2022-12-29T02:49:12.390Z,5.69
2022-12-29T02:52:58.856Z,5.85
2022-12-29T02:56:41.609Z,5.79
2022-12-29T03:00:24.323Z,5.69
2022-12-29T03:04:22.018Z,5.67
2022-12-29T03:08:09.063Z,5.73
2022-12-29T03:12:11.853Z,5.68
2022-12-29T03:16:01.171Z,5.62
2022-12-29T03:19:49.430Z,5.65
2022-12-29T03:23:32.269Z,5.74
2022-12-29T03:27:23.356Z,5.82
2022-12-29T03:31:06.909Z,5.88
2022-12-29T03:34:52.149Z,5.89
2022-12-29T03:38:37.886Z,5.91
2022-12-29T03:42:24.808Z,5.89
2022-12-29T03:46:07.669Z,6.11
2022-12-29T03:49:52.111Z,6.00
2022-12-29T03:53:34.869Z,6.02
2022-12-29T03:57:17.520Z,5.97
2022-12-29T04:01:00.271Z,5.99
2022-12-29T04:04:43.014Z,5.97
2022-12-29T04:08:27.471Z,5.97
2022-12-29T04:12:10.124Z,6.05
2022-12-29T04:15:52.959Z,5.99
2022-12-29T04:19:35.685Z,5.97
2022-12-29T04:23:18.481Z,6.01
2022-12-29T04:27:02.662Z,6.09
2022-12-29T04:30:45.566Z,6.05
2022-12-29T04:34:28.330Z,6.05
2022-12-29T04:38:11.169Z,6.03
2022-12-29T04:41:53.877Z,6.06
2022-12-29T04:45:38.395Z,6.09
2022-12-29T04:49:21.045Z,6.12
2022-12-29T04:53:03.743Z,6.16
2022-12-29T04:56:46.420Z,6.13
2022-12-29T05:00:29.202Z,6.14
2022-12-29T05:04:13.327Z,6.11
2022-12-29T05:07:56.940Z,6.07
2022-12-29T05:11:39.656Z,6.11
2022-12-29T05:15:22.935Z,6.14
2022-12-29T05:19:05.684Z,6.26
2022-12-29T05:22:49.757Z,6.26
2022-12-29T05:26:32.487Z,6.27
2022-12-29T05:30:15.184Z,6.26
2022-12-29T05:33:57.891Z,6.27
2022-12-29T05:37:40.582Z,6.30
2022-12-29T05:41:24.553Z,6.27
2022-12-29T05:45:09.095Z,6.32
2022-12-29T05:48:51.753Z,6.36
2022-12-29T05:52:34.532Z,6.30
2022-12-29T05:56:17.341Z,6.28
2022-12-29T06:00:01.651Z,6.34
2022-12-29T06:03:48.089Z,6.34
2022-12-29T06:07:33.278Z,6.52
2022-12-29T06:11:16.008Z,6.48
2022-12-29T06:14:58.679Z,6.50
2022-12-29T06:18:43.191Z,6.45
2022-12-29T06:22:25.991Z,6.55
2022-12-29T06:26:08.703Z,6.51
2022-12-29T06:29:51.340Z,6.53
2022-12-29T06:33:34.019Z,6.52
2022-12-29T06:37:18.047Z,6.47
2022-12-29T06:41:00.711Z,6.44
2022-12-29T06:44:43.811Z,6.47
2022-12-29T06:48:26.588Z,6.44
2022-12-29T06:52:12.926Z,6.38
2022-12-29T06:55:58.020Z,6.33
2022-12-29T06:59:40.711Z,6.38
2022-12-29T07:03:23.503Z,6.43
2022-12-29T07:07:06.227Z,6.38
2022-12-29T07:10:49.075Z,6.34
2022-12-29T07:14:37.419Z,6.43
2022-12-29T07:18:25.171Z,6.43
2022-12-29T07:22:07.899Z,6.50
2022-12-29T07:25:50.674Z,6.43
2022-12-29T07:29:34.860Z,6.44
2022-12-29T07:33:18.657Z,6.54
2022-12-29T07:37:01.331Z,6.52
2022-12-29T07:40:44.044Z,6.52
2022-12-29T07:44:26.701Z,6.58
2022-12-29T07:48:10.863Z,6.71
2022-12-29T07:51:53.650Z,6.73
2022-12-29T07:55:36.426Z,6.84
2022-12-29T07:59:19.636Z,6.94
2022-12-29T08:03:02.344Z,6.94
2022-12-29T08:06:47.377Z,6.97
2022-12-29T08:10:30.057Z,7.01
2022-12-29T08:14:12.932Z,6.95
2022-12-29T08:17:55.575Z,7.00
2022-12-29T08:21:38.291Z,6.98
2022-12-29T08:25:25.408Z,7.14
2022-12-29T08:29:08.109Z,7.05
2022-12-29T08:32:50.765Z,7.24
2022-12-29T08:36:33.572Z,7.38
2022-12-29T08:40:19.103Z,7.56
2022-12-29T08:44:03.158Z,7.69
2022-12-29T08:47:45.843Z,7.73
2022-12-29T08:51:29.118Z,7.78
2022-12-29T08:55:11.783Z,7.84
2022-12-29T08:58:54.791Z,7.97
2022-12-29T09:02:38.967Z,8.04
2022-12-29T09:06:21.806Z,8.16
2022-12-29T09:10:05.426Z,8.29
2022-12-29T09:13:48.491Z,8.46
2022-12-29T09:17:43.297Z,8.55
2022-12-29T09:21:27.326Z,8.67
2022-12-29T09:25:11.126Z,8.84
2022-12-29T09:28:53.862Z,8.86
2022-12-29T09:32:43.593Z,9.02
2022-12-29T09:36:29.033Z,9.15
2022-12-29T09:40:23.181Z,9.22
2022-12-29T09:44:11.105Z,9.22
2022-12-29T09:47:54.046Z,9.18
2022-12-29T09:51:39.989Z,9.31
2022-12-29T09:55:24.785Z,9.26
2022-12-29T09:59:14.244Z,9.23
2022-12-29T10:02:58.701Z,9.24
2022-12-29T10:07:19.323Z,9.25
2022-12-29T10:10:55.512Z,9.28
2022-12-29T10:14:49.748Z,9.35
2022-12-29T10:19:10.061Z,9.40
2022-12-29T10:23:07.222Z,9.39
2022-12-29T10:26:53.426Z,9.35
2022-12-29T10:30:36.469Z,9.52
2022-12-29T10:34:23.307Z,9.56
2022-12-29T10:38:14.352Z,9.58
2022-12-29T10:42:03.563Z,9.66
2022-12-29T10:45:46.601Z,9.69
2022-12-29T10:49:30.584Z,9.73
2022-12-29T10:53:19.731Z,9.75
2022-12-29T10:57:04.605Z,9.75
2022-12-29T11:00:52.948Z,9.74
2022-12-29T11:04:45.896Z,9.74
2022-12-29T11:08:33.154Z,9.80
2022-12-29T11:12:24.454Z,9.98
2022-12-29T11:16:07.854Z,10.19
2022-12-29T11:19:50.595Z,10.41
2022-12-29T11:23:36.525Z,10.72
2022-12-29T11:27:21.640Z,10.77
2022-12-29T11:31:06.291Z,10.97
2022-12-29T11:34:49.560Z,11.23
2022-12-29T11:38:37.786Z,11.40
2022-12-29T11:42:22.652Z,11.35
2022-12-29T11:46:06.259Z,11.51
2022-12-29T11:49:52.796Z,11.62
2022-12-29T11:53:41.010Z,11.87
2022-12-29T11:57:24.368Z,11.85
2022-12-29T12:01:09.804Z,11.85
2022-12-29T12:04:58.231Z,11.94
2022-12-29T12:08:47.489Z,12.22
2022-12-29T12:12:33.373Z,12.31
2022-12-29T12:16:19.432Z,12.60
2022-12-29T12:20:05.958Z,12.78
2022-12-29T12:24:02.814Z,12.95
2022-12-29T12:27:49.008Z,13.20
2022-12-29T12:31:43.659Z,13.44
2022-12-29T12:35:36.762Z,13.53
2022-12-29T12:39:28.206Z,13.78
2022-12-29T12:43:23.757Z,13.85
2022-12-29T12:47:25.903Z,13.88
2022-12-29T12:51:16.762Z,13.81
2022-12-29T12:55:13.163Z,13.78
2022-12-29T12:59:02.957Z,13.56
2022-12-29T13:03:02.049Z,13.49
2022-12-29T13:06:51.334Z,13.40
2022-12-29T13:10:48.309Z,13.23
2022-12-29T13:14:43.513Z,13.14
2022-12-29T13:18:31.410Z,13.02
2022-12-29T13:22:18.775Z,13.06
2022-12-29T13:26:15.646Z,12.90
2022-12-29T13:30:02.986Z,12.89
2022-12-29T13:33:51.358Z,12.88
2022-12-29T13:37:36.261Z,12.78
2022-12-29T13:41:23.199Z,12.77
2022-12-29T13:45:08.528Z,12.70
2022-12-29T13:48:54.174Z,12.60
2022-12-29T13:52:39.031Z,12.59
2022-12-29T13:56:27.995Z,12.54
2022-12-29T14:00:15.719Z,12.43
2022-12-29T14:03:59.482Z,12.37
2022-12-29T14:07:42.464Z,12.35
2022-12-29T14:11:32.536Z,12.43
2022-12-29T14:15:25.350Z,12.27
2022-12-29T14:19:16.711Z,12.16
2022-12-29T14:23:01.470Z,12.20
2022-12-29T14:26:45.499Z,12.16
2022-12-29T14:30:49.904Z,12.09
2022-12-29T14:34:41.127Z,12.05
2022-12-29T14:38:31.437Z,11.94
2022-12-29T14:42:18.515Z,11.70
2022-12-29T14:46:03.194Z,11.52
2022-12-29T14:49:46.732Z,11.40
2022-12-29T14:53:53.563Z,11.28
2022-12-29T14:57:40.758Z,11.22
2022-12-29T15:01:31.257Z,11.09
2022-12-29T15:05:27.454Z,10.95
2022-12-29T15:09:18.546Z,10.84
2022-12-29T15:13:06.168Z,10.76
2022-12-29T15:16:49.021Z,10.69
2022-12-29T15:20:34.172Z,10.67
2022-12-29T15:24:17.103Z,10.62
2022-12-29T15:28:05.141Z,10.50
2022-12-29T15:31:49.203Z,10.38
2022-12-29T15:35:35.350Z,10.28
2022-12-29T15:39:21.582Z,10.28
2022-12-29T15:43:15.054Z,10.24
2022-12-29T15:46:57.935Z,10.23
2022-12-29T15:50:44.023Z,10.18
2022-12-29T15:54:28.744Z,10.17
2022-12-29T15:58:23.647Z,10.10
2022-12-29T16:02:12.607Z,10.12
2022-12-29T16:05:57.638Z,10.01
2022-12-29T16:09:44.521Z,10.00
2022-12-29T16:13:34.214Z,9.98
2022-12-29T16:17:22.778Z,9.91
2022-12-29T16:21:06.881Z,9.92
2022-12-29T16:24:49.574Z,9.93
2022-12-29T16:28:38.190Z,10.02
2022-12-29T16:32:27.284Z,9.95
2022-12-29T16:36:28.902Z,9.95
2022-12-29T16:40:32.411Z,9.86
2022-12-29T16:44:18.405Z,9.87
2022-12-29T16:48:17.610Z,9.80
2022-12-29T16:52:00.876Z,9.84
2022-12-29T16:55:48.412Z,9.81
2022-12-29T16:59:35.687Z,9.84
2022-12-29T17:03:18.465Z,9.86
2022-12-29T17:07:01.187Z,9.79
2022-12-29T17:11:01.389Z,9.77
2022-12-29T17:14:46.711Z,9.78
2022-12-29T17:18:29.520Z,9.79
2022-12-29T17:22:14.255Z,9.76
2022-12-29T17:25:57.033Z,9.80
2022-12-29T17:29:42.414Z,9.81
2022-12-29T17:33:26.427Z,9.84
2022-12-29T17:37:32.878Z,9.83
2022-12-29T17:41:16.562Z,9.88
2022-12-29T17:44:59.714Z,9.84
2022-12-29T17:48:48.060Z,9.82
2022-12-29T17:52:34.307Z,9.79
2022-12-29T17:56:16.984Z,9.74
2022-12-29T18:00:02.429Z,9.73
2022-12-29T18:03:46.574Z,9.75
2022-12-29T18:07:35.693Z,9.62
2022-12-29T18:11:24.680Z,9.58
2022-12-29T18:15:11.669Z,9.55
2022-12-29T18:18:55.764Z,9.48
2022-12-29T18:22:38.983Z,9.45
2022-12-29T18:26:27.696Z,9.43
2022-12-29T18:30:14.992Z,9.44
2022-12-29T18:34:00.827Z,9.46
2022-12-29T18:37:43.499Z,9.45
2022-12-29T18:41:29.450Z,9.37
2022-12-29T18:45:18.451Z,9.49
2022-12-29T18:49:02.551Z,9.50
2022-12-29T18:52:45.756Z,9.54
2022-12-29T18:56:28.487Z,9.54
2022-12-29T19:00:12.735Z,9.59
2022-12-29T19:03:55.686Z,9.65
2022-12-29T19:07:39.716Z,9.50
2022-12-29T19:11:24.184Z,9.47
2022-12-29T19:15:07.815Z,9.40
2022-12-29T19:19:07.722Z,9.36
2022-12-29T19:22:52.802Z,9.39
2022-12-29T19:26:37.320Z,11.02
2022-12-29T19:30:21.084Z,11.02
2022-12-29T19:34:04.212Z,10.65
2022-12-29T19:37:47.179Z,10.31
2022-12-29T19:41:33.245Z,10.04
2022-12-29T19:45:16.275Z,9.92
2022-12-29T19:48:59.453Z,9.84
2022-12-29T19:52:43.710Z,9.82
2022-12-29T19:56:26.542Z,9.74
2022-12-29T20:00:13.445Z,9.67
2022-12-29T20:03:56.164Z,9.67
2022-12-29T20:07:39.705Z,9.67
2022-12-29T20:11:22.642Z,9.65
2022-12-29T20:15:07.151Z,9.59
2022-12-29T20:18:51.394Z,9.59
2022-12-29T20:22:34.169Z,9.49
2022-12-29T20:26:18.887Z,9.35
2022-12-29T20:30:02.007Z,9.31
2022-12-29T20:33:44.882Z,9.24
2022-12-29T20:37:29.256Z,9.24
2022-12-29T20:41:12.176Z,9.26
2022-12-29T20:44:54.927Z,9.19
2022-12-29T20:48:37.710Z,9.04
2022-12-29T20:52:20.407Z,9.03
2022-12-29T20:56:07.050Z,9.05
2022-12-29T20:59:50.072Z,9.08
2022-12-29T21:03:33.043Z,9.10
2022-12-29T21:07:19.890Z,9.14
2022-12-29T21:11:05.193Z,9.13
2022-12-29T21:14:50.508Z,9.13
2022-12-29T21:18:33.321Z,9.16
2022-12-29T21:22:16.106Z,9.17
2022-12-29T21:26:00.286Z,9.18
2022-12-29T21:29:44.325Z,9.15
2022-12-29T21:33:26.988Z,9.10
2022-12-29T21:37:09.698Z,9.06
2022-12-29T21:40:52.390Z,9.04
2022-12-29T21:44:52.789Z,9.04
2022-12-29T21:48:36.935Z,9.02
2022-12-29T21:52:19.623Z,8.99
2022-12-29T21:56:02.306Z,8.88
2022-12-29T22:00:02.624Z,8.88
2022-12-29T22:04:04.397Z,8.82
2022-12-29T22:08:04.524Z,8.74
2022-12-29T22:12:04.917Z,8.64
2022-12-29T22:15:47.894Z,8.57
2022-12-29T22:19:32.035Z,8.51
2022-12-29T22:23:15.104Z,8.46
2022-12-29T22:26:57.873Z,8.48
2022-12-29T22:30:40.595Z,8.50
2022-12-29T22:34:23.304Z,8.66
2022-12-29T22:38:07.408Z,8.61
2022-12-29T22:41:50.057Z,8.64
2022-12-29T22:45:32.680Z,8.61
2022-12-29T22:49:15.666Z,8.59
2022-12-29T22:53:00.206Z,8.48
2022-12-29T22:56:44.416Z,8.53
2022-12-29T23:00:27.240Z,8.55
2022-12-29T23:04:55.592Z,8.57
2022-12-29T23:08:12.785Z,8.47
2022-12-29T23:11:56.923Z,8.50
2022-12-29T23:15:40.013Z,8.53
2022-12-29T23:19:23.017Z,8.48
2022-12-29T23:23:05.749Z,8.44
2022-12-29T23:26:48.592Z,8.55
2022-12-29T23:30:32.833Z,8.56
2022-12-29T23:34:16.545Z,8.56
2022-12-29T23:37:59.358Z,8.69
2022-12-29T23:41:42.162Z,8.56
2022-12-29T23:45:24.897Z,8.62
2022-12-29T23:49:11.149Z,8.65
2022-12-29T23:52:53.827Z,8.64
2022-12-29T23:56:36.450Z,8.65
